20PA weather

Public forecast

Using degrees Fahrenheit for public forecast. Weather courtesy of forecast.io.

Closest aviation weather report (METAR) to Reichdrill Heliport

Closest report is Clearfield Lawrence Airport, 12.0 nm (22.3 km) NW. Retrieved 2020/08/12 00:28 UTC (25 minutes ago):

KFIG 120028Z AUTO 10SM -RA FEW027 BKN045 OVC050 24/21 A2996 RMK AO2 RAB2359 P0012 T02440206

Closest aviation forecast (TAF) to Reichdrill Heliport

Closest forecast is University Park Airport, 17.6 nm (32.6 km) E. Retrieved 2020-08-12 00:39 UTC (14 minutes ago):

TAF KUNV 112337Z 1200/1224 23007KT P6SM SCT060 FM121000 00000KT 3SM BR SCT010 BKN120 FM121300 VRB03KT P6SM BKN250